Time;durP1;ratioP1;P1;durP2;ratioP2;P2;SDS_P1;SDS_P2;PMS_P1;PMS_P2;Temp;Humidity;BMP_temperature;BMP_pressure;BME280_temperature;BME280_humidity;BME280_pressure;Samples;Min_cycle;Max_cycle;Signal;HPM_P1;HPM_P2
2024/02/08 00:00:00;;;;;;;28.03;9.60;;;;;;;;;;5128830;28;20040;-59
2024/02/08 00:02:26;;;;;;;27.00;8.87;;;;;;;;;;5117045;28;20088;-60
2024/02/08 00:04:52;;;;;;;26.88;10.55;;;;;;;;;;5112962;28;20048;-59
2024/02/08 00:07:17;;;;;;;22.55;9.23;;;;;;;;;;5103740;28;20100;-58
2024/02/08 00:09:43;;;;;;;23.50;8.77;;;;;;;;;;5116707;28;20043;-59
2024/02/08 00:12:08;;;;;;;18.80;8.85;;;;;;;;;;5131829;28;20031;-58
2024/02/08 00:14:34;;;;;;;28.27;10.37;;;;;;;;;;5123241;28;20031;-58
2024/02/08 00:17:00;;;;;;;33.47;9.03;;;;;;;;;;5116728;28;20269;-59
2024/02/08 00:19:25;;;;;;;22.60;8.55;;;;;;;;;;5116640;28;20032;-58
2024/02/08 00:21:51;;;;;;;27.07;8.90;;;;;;;;;;5124383;28;20096;-55
2024/02/08 00:24:19;;;;;;;33.60;8.97;;;;;;;;;;5116662;28;20099;-58
2024/02/08 00:26:44;;;;;;;31.33;8.93;;;;;;;;;;5116076;28;20039;-58
2024/02/08 00:29:09;;;;;;;31.27;9.17;;;;;;;;;;5119292;28;20040;-60
2024/02/08 00:31:34;;;;;;;28.37;8.50;;;;;;;;;;5128614;28;20066;-58
2024/02/08 00:34:00;;;;;;;33.90;9.30;;;;;;;;;;5133064;28;20032;-60
2024/02/08 00:36:25;;;;;;;21.60;8.32;;;;;;;;;;5122464;28;20091;-59
2024/02/08 00:38:51;;;;;;;22.20;6.60;;;;;;;;;;5116556;28;20055;-58
2024/02/08 00:41:17;;;;;;;28.58;9.35;;;;;;;;;;5125204;28;20256;-60
2024/02/08 00:43:42;;;;;;;28.80;9.23;;;;;;;;;;5116146;28;20046;-56
2024/02/08 00:46:08;;;;;;;28.63;9.70;;;;;;;;;;5114736;28;20032;-57
2024/02/08 00:48:34;;;;;;;30.83;8.80;;;;;;;;;;5114455;28;20088;-58
2024/02/08 00:50:59;;;;;;;23.17;8.93;;;;;;;;;;5122396;28;20031;-59
2024/02/08 00:53:25;;;;;;;31.88;9.65;;;;;;;;;;5116021;28;20097;-54
2024/02/08 00:55:50;;;;;;;26.57;8.63;;;;;;;;;;5115997;28;20028;-57
2024/02/08 00:58:16;;;;;;;23.27;8.83;;;;;;;;;;5102448;28;20035;-54
2024/02/08 01:00:42;;;;;;;21.30;8.10;;;;;;;;;;5117622;28;20271;-58
2024/02/08 01:03:07;;;;;;;31.42;9.15;;;;;;;;;;5097050;28;20058;-58
2024/02/08 01:05:33;;;;;;;33.40;8.37;;;;;;;;;;5120614;28;20099;-59
2024/02/08 01:08:02;;;;;;;21.67;9.10;;;;;;;;;;5127590;28;20307;-58
2024/02/08 01:10:27;;;;;;;28.45;8.85;;;;;;;;;;5117345;28;20059;-58
2024/02/08 01:12:54;;;;;;;28.97;9.07;;;;;;;;;;5115450;28;20024;-56
2024/02/08 01:15:20;;;;;;;28.38;11.80;;;;;;;;;;5106841;28;20264;-58
2024/02/08 01:17:46;;;;;;;23.13;8.93;;;;;;;;;;5115608;28;20040;-58
2024/02/08 01:20:19;;;;;;;26.08;8.55;;;;;;;;;;5104555;28;20056;-59
2024/02/08 01:22:45;;;;;;;24.00;9.60;;;;;;;;;;5126856;28;20032;-59
2024/02/08 01:25:11;;;;;;;29.67;10.05;;;;;;;;;;5121528;28;20095;-57
2024/02/08 01:27:36;;;;;;;26.50;9.03;;;;;;;;;;5115282;28;20032;-58
2024/02/08 01:30:07;;;;;;;21.50;9.53;;;;;;;;;;5115292;28;20280;-60
2024/02/08 01:32:32;;;;;;;36.60;12.00;;;;;;;;;;5125110;28;20039;-58
2024/02/08 01:34:58;;;;;;;28.40;10.40;;;;;;;;;;5111134;28;20032;-57
2024/02/08 01:37:24;;;;;;;23.07;9.10;;;;;;;;;;5115336;28;20051;-58
2024/02/08 01:39:50;;;;;;;22.90;8.67;;;;;;;;;;5126066;28;20287;-59
2024/02/08 01:42:16;;;;;;;17.90;6.97;;;;;;;;;;5119831;28;20032;-57
2024/02/08 01:44:45;;;;;;;22.02;9.68;;;;;;;;;;5111487;28;20256;-60
2024/02/08 01:47:11;;;;;;;29.77;9.25;;;;;;;;;;5109521;28;20051;-57
2024/02/08 01:49:38;;;;;;;30.73;10.98;;;;;;;;;;5114808;28;20036;-55
2024/02/08 01:52:04;;;;;;;28.48;9.35;;;;;;;;;;5120018;28;20107;-57
2024/02/08 01:54:30;;;;;;;27.88;8.95;;;;;;;;;;5114103;28;20031;-59
2024/02/08 01:57:01;;;;;;;24.63;9.98;;;;;;;;;;5117094;28;20113;-59
2024/02/08 01:59:27;;;;;;;28.35;9.40;;;;;;;;;;5107950;28;20029;-58
2024/02/08 02:01:56;;;;;;;24.20;8.75;;;;;;;;;;5106910;28;20181;-56
2024/02/08 02:04:22;;;;;;;29.15;8.73;;;;;;;;;;5114373;28;20020;-60
2024/02/08 02:06:49;;;;;;;28.55;9.60;;;;;;;;;;5114820;28;20034;-58
2024/02/08 02:09:23;;;;;;;28.57;9.07;;;;;;;;;;5118832;28;20024;-57
2024/02/08 02:12:09;;;;;;;28.00;9.07;;;;;;;;;;5114700;28;20032;-57
2024/02/08 02:14:35;;;;;;;28.52;10.10;;;;;;;;;;5113817;28;20020;-59
2024/02/08 02:17:11;;;;;;;25.75;9.00;;;;;;;;;;5122244;28;20106;-57
2024/02/08 02:19:38;;;;;;;27.08;7.28;;;;;;;;;;5119438;28;20032;-61
2024/02/08 02:22:03;;;;;;;27.27;8.40;;;;;;;;;;5105645;28;20037;-57
2024/02/08 02:24:29;;;;;;;32.70;10.83;;;;;;;;;;5111528;28;20024;-58
2024/02/08 02:26:57;;;;;;;27.43;12.07;;;;;;;;;;5114447;28;20328;-58
2024/02/08 02:29:24;;;;;;;23.52;9.18;;;;;;;;;;5120845;28;20255;-59
2024/02/08 02:31:50;;;;;;;22.17;8.77;;;;;;;;;;5118491;28;20020;-57
2024/02/08 02:34:16;;;;;;;24.50;9.63;;;;;;;;;;5114485;28;20058;-59
2024/02/08 02:36:44;;;;;;;27.83;11.20;;;;;;;;;;5114349;28;20028;-58
2024/02/08 02:39:13;;;;;;;36.30;10.95;;;;;;;;;;5114308;28;20284;-58
2024/02/08 02:41:42;;;;;;;36.58;11.70;;;;;;;;;;5115159;28;20020;-59
2024/02/08 02:44:08;;;;;;;28.25;10.98;;;;;;;;;;5104665;28;20039;-58
2024/02/08 02:46:36;;;;;;;33.10;10.50;;;;;;;;;;5114313;28;20026;-58
2024/02/08 02:49:01;;;;;;;28.20;10.90;;;;;;;;;;5115182;28;20043;-61
2024/02/08 02:51:27;;;;;;;35.85;10.65;;;;;;;;;;5119790;28;20028;-59
2024/02/08 02:53:53;;;;;;;28.70;10.70;;;;;;;;;;5123168;28;20032;-56
2024/02/08 02:56:19;;;;;;;32.23;11.03;;;;;;;;;;5114314;28;20177;-58
2024/02/08 02:58:45;;;;;;;36.28;11.38;;;;;;;;;;5113968;28;20034;-59
2024/02/08 03:01:12;;;;;;;32.33;11.38;;;;;;;;;;5113939;28;20056;-58
2024/02/08 03:03:37;;;;;;;26.17;9.02;;;;;;;;;;5123140;28;20087;-60
2024/02/08 03:06:09;;;;;;;26.43;10.10;;;;;;;;;;5114060;28;20040;-57
2024/02/08 03:08:38;;;;;;;25.80;10.68;;;;;;;;;;5109803;28;20273;-59
2024/02/08 03:11:04;;;;;;;27.92;10.80;;;;;;;;;;5113284;28;20173;-59
2024/02/08 03:13:32;;;;;;;23.50;10.82;;;;;;;;;;5120715;28;20024;-58
2024/02/08 03:15:58;;;;;;;34.03;10.65;;;;;;;;;;5130238;27;20103;-58
2024/02/08 03:18:23;;;;;;;29.00;9.70;;;;;;;;;;5124008;28;20032;-56
2024/02/08 03:20:50;;;;;;;40.77;10.80;;;;;;;;;;5112190;28;20300;-55
2024/02/08 03:23:16;;;;;;;30.80;10.25;;;;;;;;;;5112861;28;20065;-58
2024/02/08 03:25:41;;;;;;;32.03;9.87;;;;;;;;;;5117111;28;20028;-57
2024/02/08 03:28:08;;;;;;;29.60;10.35;;;;;;;;;;5118220;28;20036;-56
2024/02/08 03:30:34;;;;;;;25.60;9.05;;;;;;;;;;5118486;28;20039;-57
2024/02/08 03:33:12;;;;;;;27.80;9.95;;;;;;;;;;5120039;28;20039;-58
2024/02/08 03:35:38;;;;;;;26.83;9.60;;;;;;;;;;5108203;28;20083;-60
2024/02/08 03:38:08;;;;;;;39.10;10.75;;;;;;;;;;5118171;28;20062;-58
2024/02/08 03:40:34;;;;;;;30.05;10.40;;;;;;;;;;5117620;28;20099;-58
2024/02/08 03:43:00;;;;;;;28.43;9.23;;;;;;;;;;5129369;28;20047;-58
2024/02/08 03:45:27;;;;;;;27.67;10.65;;;;;;;;;;5117342;28;20332;-55
2024/02/08 03:47:57;;;;;;;26.27;9.23;;;;;;;;;;5127646;28;20035;-54
2024/02/08 03:50:24;;;;;;;26.02;10.07;;;;;;;;;;5125368;28;20051;-55
2024/02/08 03:52:53;;;;;;;35.42;10.73;;;;;;;;;;5125360;28;20118;-58
2024/02/08 03:55:26;;;;;;;20.55;9.73;;;;;;;;;;5116785;28;20027;-59
2024/02/08 03:58:06;;;;;;;28.10;10.35;;;;;;;;;;5123550;28;20043;-59
2024/02/08 04:00:33;;;;;;;37.05;11.07;;;;;;;;;;5117072;28;20039;-59
2024/02/08 04:03:01;;;;;;;30.15;10.30;;;;;;;;;;5113406;28;20040;-58
2024/02/08 04:05:58;;;;;;;35.20;10.20;;;;;;;;;;5116853;28;20042;-59
2024/02/08 04:54:42;;;;;;;34.78;9.30;;;;;;;;;;5127906;28;20032;-59
2024/02/08 04:57:08;;;;;;;33.28;10.20;;;;;;;;;;5117910;28;20036;-59
2024/02/08 04:59:36;;;;;;;26.35;10.27;;;;;;;;;;5115691;28;20028;-59
2024/02/08 05:02:06;;;;;;;25.40;8.27;;;;;;;;;;5104980;28;20052;-58
2024/02/08 05:04:35;;;;;;;29.02;9.13;;;;;;;;;;5121603;28;20036;-58
2024/02/08 05:07:00;;;;;;;29.05;7.93;;;;;;;;;;5114454;28;20100;-60
2024/02/08 05:09:26;;;;;;;20.80;6.03;;;;;;;;;;5114116;28;20484;-56
2024/02/08 05:11:52;;;;;;;28.13;7.70;;;;;;;;;;5114839;28;20036;-58
2024/02/08 05:14:22;;;;;;;27.98;7.60;;;;;;;;;;5117479;28;20254;-60
2024/02/08 05:16:54;;;;;;;16.98;6.38;;;;;;;;;;5108392;28;20028;-57
2024/02/08 05:19:23;;;;;;;25.10;6.82;;;;;;;;;;5120605;28;20032;-57
2024/02/08 05:21:49;;;;;;;31.55;6.97;;;;;;;;;;5114861;28;20032;-59
2024/02/08 05:24:15;;;;;;;30.70;6.45;;;;;;;;;;5121884;28;20059;-58
2024/02/08 05:26:41;;;;;;;20.13;6.30;;;;;;;;;;5114931;28;20036;-58
2024/02/08 05:29:08;;;;;;;18.77;6.50;;;;;;;;;;5115498;28;20261;-57
2024/02/08 05:31:39;;;;;;;21.95;8.05;;;;;;;;;;5114993;28;20028;-58
2024/02/08 05:34:10;;;;;;;26.55;7.47;;;;;;;;;;5117920;28;20451;-58
2024/02/08 05:36:39;;;;;;;24.60;7.00;;;;;;;;;;5114881;28;20084;-62
2024/02/08 05:39:04;;;;;;;17.80;7.18;;;;;;;;;;5115278;28;20067;-58
2024/02/08 05:41:33;;;;;;;20.50;6.75;;;;;;;;;;5115030;28;20028;-62
2024/02/08 05:43:58;;;;;;;26.25;8.52;;;;;;;;;;5123604;28;20063;-57
2024/02/08 05:46:30;;;;;;;28.90;7.22;;;;;;;;;;5116843;28;20793;-59
2024/02/08 05:49:11;;;;;;;23.65;7.22;;;;;;;;;;5120388;28;20044;-54
2024/02/08 05:51:38;;;;;;;21.65;7.57;;;;;;;;;;5115237;28;20036;-57
2024/02/08 05:54:05;;;;;;;25.40;7.30;;;;;;;;;;5126053;28;20036;-57
2024/02/08 05:56:33;;;;;;;21.55;7.13;;;;;;;;;;5110475;28;20029;-57
2024/02/08 05:59:01;;;;;;;22.38;6.75;;;;;;;;;;5108825;28;20036;-57
2024/02/08 06:01:31;;;;;;;21.85;6.53;;;;;;;;;;5109552;28;20036;-57
2024/02/08 06:04:00;;;;;;;26.33;7.82;;;;;;;;;;5120214;28;20038;-58
2024/02/08 06:06:34;;;;;;;20.83;6.80;;;;;;;;;;5126679;28;20027;-60
2024/02/08 06:09:08;;;;;;;24.70;7.25;;;;;;;;;;5114403;28;20036;-60
2024/02/08 06:11:39;;;;;;;24.02;6.47;;;;;;;;;;5114480;28;20042;-59
2024/02/08 06:14:21;;;;;;;16.45;6.15;;;;;;;;;;5117307;28;20046;-57
2024/02/08 06:16:48;;;;;;;21.27;7.47;;;;;;;;;;5106069;28;20159;-59
2024/02/08 06:19:15;;;;;;;35.58;7.00;;;;;;;;;;5113159;28;20039;-59
2024/02/08 06:21:41;;;;;;;18.15;6.40;;;;;;;;;;5113651;28;20044;-58
2024/02/08 06:27:37;;;;;;;18.40;6.40;;;;;;;;;;5113815;28;20028;-55
2024/02/08 06:29:38;;;;;;;18.23;6.65;;;;;;;;;;5101415;28;20040;-58
2024/02/08 06:32:23;;;;;;;22.63;5.60;;;;;;;;;;5106747;28;20119;-57
2024/02/08 06:35:09;;;;;;;20.63;5.90;;;;;;;;;;5125780;28;20368;-59
2024/02/08 06:37:44;;;;;;;19.55;6.57;;;;;;;;;;5114618;28;20024;-60
2024/02/08 06:40:21;;;;;;;20.48;6.30;;;;;;;;;;5113902;28;20020;-56
2024/02/08 06:45:40;;;;;;;18.08;5.72;;;;;;;;;;5127660;28;20152;-59
2024/02/08 07:37:18;;;;;;;21.63;8.13;;;;;;;;;;5117001;28;20028;-62
2024/02/08 07:39:54;;;;;;;29.85;8.48;;;;;;;;;;5116806;28;20036;-61
2024/02/08 07:42:41;;;;;;;25.38;8.27;;;;;;;;;;5117104;28;20046;-60
2024/02/08 07:45:12;;;;;;;28.27;7.97;;;;;;;;;;5117514;28;20095;-60
2024/02/08 07:47:38;;;;;;;16.40;6.60;;;;;;;;;;5117205;28;20036;-60
2024/02/08 07:50:10;;;;;;;16.17;6.72;;;;;;;;;;5116601;28;20024;-59
2024/02/08 07:52:45;;;;;;;22.35;7.63;;;;;;;;;;5110662;28;20028;-59
2024/02/08 07:55:14;;;;;;;26.98;9.25;;;;;;;;;;5123252;28;20087;-59
2024/02/08 07:57:48;;;;;;;27.75;8.25;;;;;;;;;;5116139;28;20044;-60
2024/02/08 08:03:08;;;;;;;34.65;10.60;;;;;;;;;;5116362;28;20036;-58
2024/02/08 08:05:41;;;;;;;25.13;7.00;;;;;;;;;;5119120;28;20032;-61
2024/02/08 08:08:24;;;;;;;28.42;8.43;;;;;;;;;;5114341;28;20024;-59
2024/02/08 08:10:56;;;;;;;24.70;8.63;;;;;;;;;;5121405;28;20019;-58
2024/02/08 08:13:50;;;;;;;22.83;7.35;;;;;;;;;;5119593;28;20115;-58
2024/02/08 08:18:56;;;;;;;26.00;7.50;;;;;;;;;;5108946;28;20043;-58
2024/02/08 08:21:25;;;;;;;18.95;6.75;;;;;;;;;;5113010;28;20012;-56
2024/02/08 08:23:59;;;;;;;24.60;7.35;;;;;;;;;;5116160;28;20043;-61
2024/02/08 08:26:37;;;;;;;21.00;6.97;;;;;;;;;;5107970;28;20111;-59
2024/02/08 08:29:04;;;;;;;19.73;8.13;;;;;;;;;;5116262;28;20038;-57
2024/02/08 08:31:35;;;;;;;29.05;7.00;;;;;;;;;;5111294;28;20034;-59
2024/02/08 08:34:00;;;;;;;22.55;7.28;;;;;;;;;;5107272;28;20085;-60
2024/02/08 08:36:29;;;;;;;23.43;7.80;;;;;;;;;;5122928;28;20028;-60
2024/02/08 08:39:46;;;;;;;20.45;7.35;;;;;;;;;;5116070;28;20024;-59
2024/02/08 08:41:47;;;;;;;19.15;7.05;;;;;;;;;;5111259;28;20032;-59
2024/02/08 08:44:18;;;;;;;26.33;5.93;;;;;;;;;;5114687;28;20079;-60
2024/02/08 08:46:44;;;;;;;16.90;6.63;;;;;;;;;;5128020;28;20027;-59
2024/02/08 08:49:14;;;;;;;21.50;5.88;;;;;;;;;;5115418;28;20031;-58
2024/02/08 08:51:42;;;;;;;21.48;7.05;;;;;;;;;;5114559;28;20035;-57
2024/02/08 08:54:14;;;;;;;21.85;6.10;;;;;;;;;;5115643;28;20035;-55
2024/02/08 08:56:40;;;;;;;24.35;6.45;;;;;;;;;;5116781;28;20016;-58
2024/02/08 08:59:06;;;;;;;22.27;6.35;;;;;;;;;;5122318;28;20127;-58
2024/02/08 09:01:36;;;;;;;16.33;6.35;;;;;;;;;;5126609;27;20062;-59
2024/02/08 09:04:25;;;;;;;21.50;5.80;;;;;;;;;;5115605;28;20039;-59
2024/02/08 09:06:51;;;;;;;20.73;6.22;;;;;;;;;;5106892;28;20088;-59
2024/02/08 09:12:01;;;;;;;18.25;6.35;;;;;;;;;;5112139;28;20036;-60
2024/02/08 09:14:30;;;;;;;30.07;5.90;;;;;;;;;;5116266;28;20043;-61
2024/02/08 09:16:57;;;;;;;18.45;5.97;;;;;;;;;;5124085;28;20091;-57
2024/02/08 09:19:27;;;;;;;32.42;5.57;;;;;;;;;;5115458;28;20043;-59
2024/02/08 09:21:53;;;;;;;26.13;5.90;;;;;;;;;;5115811;28;20027;-58
2024/02/08 09:24:22;;;;;;;;;;;;;;;;;;5116268;28;20036;-60
2024/02/08 09:27:15;;;;;;;26.50;6.78;;;;;;;;;;5116898;28;19919;-58
2024/02/08 09:29:42;;;;;;;23.63;5.45;;;;;;;;;;5114273;28;20051;-59
2024/02/08 09:34:54;;;;;;;18.23;5.57;;;;;;;;;;5110749;28;20047;-59
2024/02/08 09:37:20;;;;;;;17.52;5.13;;;;;;;;;;5116430;28;20076;-56
2024/02/08 09:42:26;;;;;;;22.80;6.55;;;;;;;;;;5123257;28;20027;-59
2024/02/08 09:45:13;;;;;;;17.52;6.68;;;;;;;;;;5115453;28;20046;-60
2024/02/08 09:47:44;;;;;;;20.35;5.65;;;;;;;;;;5125978;28;20016;-59
2024/02/08 09:50:21;;;;;;;25.70;6.35;;;;;;;;;;5096507;28;20044;-58
2024/02/08 09:52:56;;;;;;;20.05;5.78;;;;;;;;;;5113775;28;20039;-58
2024/02/08 09:55:24;;;;;;;23.70;6.35;;;;;;;;;;5111968;28;20035;-59
2024/02/08 09:57:53;;;;;;;21.08;5.80;;;;;;;;;;5121828;28;20072;-60
2024/02/08 10:00:34;;;;;;;19.35;5.43;;;;;;;;;;5111814;28;20032;-60
2024/02/08 10:03:04;;;;;;;16.10;5.78;;;;;;;;;;5114665;28;20024;-61
2024/02/08 10:06:22;;;;;;;24.08;6.88;;;;;;;;;;5111722;28;20102;-60
2024/02/08 10:08:31;;;;;;;23.92;7.50;;;;;;;;;;5111278;28;20046;-59
2024/02/08 10:11:11;;;;;;;21.63;8.13;;;;;;;;;;5100747;28;20146;-60
2024/02/08 10:16:42;;;;;;;32.58;6.80;;;;;;;;;;5115778;28;20119;-59
2024/02/08 10:19:47;;;;;;;28.13;7.68;;;;;;;;;;5109610;28;20036;-59
2024/02/08 10:22:17;;;;;;;25.60;6.85;;;;;;;;;;5111859;28;20044;-59
2024/02/08 10:27:21;;;;;;;21.70;6.35;;;;;;;;;;5115063;28;20032;-58
2024/02/08 10:30:05;;;;;;;21.25;7.03;;;;;;;;;;5114093;28;20043;-59
2024/02/08 10:32:30;;;;;;;24.05;7.47;;;;;;;;;;5110480;28;20047;-60
2024/02/08 10:35:14;;;;;;;34.97;7.57;;;;;;;;;;5120903;28;20024;-57
2024/02/08 10:37:53;;;;;;;25.13;6.72;;;;;;;;;;5114712;28;20028;-54
2024/02/08 10:40:29;;;;;;;26.27;8.02;;;;;;;;;;5112251;28;20029;-58
2024/02/08 10:42:59;;;;;;;26.40;8.38;;;;;;;;;;5116444;28;20032;-58
2024/02/08 10:45:24;;;;;;;22.35;6.60;;;;;;;;;;5101321;28;20036;-60
2024/02/08 10:47:52;;;;;;;28.85;9.20;;;;;;;;;;5120986;28;20091;-59
2024/02/08 10:50:21;;;;;;;23.20;7.32;;;;;;;;;;5112692;28;20032;-57
2024/02/08 10:52:48;;;;;;;28.70;7.38;;;;;;;;;;5111460;28;20040;-59
2024/02/08 10:55:18;;;;;;;21.63;7.20;;;;;;;;;;5114147;28;20036;-59
2024/02/08 11:06:00;;;;;;;20.45;6.95;;;;;;;;;;5117434;28;20122;-58
2024/02/08 11:08:50;;;;;;;23.75;7.22;;;;;;;;;;5113035;28;20039;-59
2024/02/08 11:11:20;;;;;;;21.00;7.78;;;;;;;;;;5105766;28;20047;-59
2024/02/08 11:13:52;;;;;;;18.73;7.53;;;;;;;;;;5113513;28;20028;-57
2024/02/08 11:16:28;;;;;;;16.95;6.75;;;;;;;;;;5109429;28;20050;-60
2024/02/08 11:18:55;;;;;;;27.05;8.20;;;;;;;;;;5116098;28;20028;-59
2024/02/08 11:21:42;;;;;;;21.73;7.28;;;;;;;;;;5113251;28;20226;-59
2024/02/08 11:24:09;;;;;;;20.88;8.30;;;;;;;;;;5113069;28;20040;-59
2024/02/08 11:26:34;;;;;;;21.42;8.18;;;;;;;;;;5106775;28;20028;-59
2024/02/08 11:29:18;;;;;;;20.40;7.70;;;;;;;;;;5125790;28;20031;-57
2024/02/08 11:31:46;;;;;;;33.72;7.75;;;;;;;;;;5119564;28;20402;-56
2024/02/08 11:34:15;;;;;;;20.05;6.78;;;;;;;;;;5123952;28;20031;-59
2024/02/08 11:36:43;;;;;;;18.13;6.90;;;;;;;;;;5119010;28;20978;-60
2024/02/08 11:39:26;;;;;;;34.60;7.05;;;;;;;;;;5124328;28;20039;-59
2024/02/08 11:41:57;;;;;;;19.55;6.57;;;;;;;;;;5114306;28;20032;-57
2024/02/08 11:44:25;;;;;;;20.77;8.15;;;;;;;;;;5115953;28;20032;-55
2024/02/08 11:47:00;;;;;;;27.08;7.03;;;;;;;;;;5115838;28;20073;-56
2024/02/08 11:49:32;;;;;;;29.45;6.45;;;;;;;;;;5123130;28;20027;-59
2024/02/08 11:51:58;;;;;;;22.17;6.47;;;;;;;;;;5100728;28;20032;-60
2024/02/08 11:54:28;;;;;;;21.35;6.57;;;;;;;;;;5111625;28;20032;-57
2024/02/08 11:56:55;;;;;;;19.17;5.90;;;;;;;;;;5118647;28;20047;-59
2024/02/08 11:59:23;;;;;;;22.02;6.40;;;;;;;;;;5110433;28;20036;-61
2024/02/08 12:01:49;;;;;;;18.50;6.40;;;;;;;;;;5113017;28;20123;-59
2024/02/08 12:04:16;;;;;;;23.33;7.17;;;;;;;;;;5116553;28;20044;-57
2024/02/08 12:06:45;;;;;;;22.15;6.13;;;;;;;;;;5114480;28;20272;-56
2024/02/08 12:09:22;;;;;;;19.33;6.65;;;;;;;;;;5128613;28;20039;-54
2024/02/08 12:11:48;;;;;;;19.17;7.10;;;;;;;;;;5113211;28;20036;-57
2024/02/08 12:14:15;;;;;;;21.65;7.40;;;;;;;;;;5108056;28;20028;-60
2024/02/08 12:16:50;;;;;;;18.70;6.55;;;;;;;;;;5111340;28;20029;-59
2024/02/08 12:19:17;;;;;;;19.58;6.30;;;;;;;;;;5110983;28;20050;-60
2024/02/08 12:21:42;;;;;;;13.80;5.60;;;;;;;;;;5111675;28;20032;-60
2024/02/08 12:24:08;;;;;;;22.77;7.18;;;;;;;;;;5114726;28;20036;-59
2024/02/08 12:26:38;;;;;;;22.45;6.72;;;;;;;;;;5110863;28;20028;-58
2024/02/08 12:29:04;;;;;;;27.83;8.27;;;;;;;;;;5114758;28;20032;-58
2024/02/08 12:31:31;;;;;;;30.05;7.65;;;;;;;;;;5116328;28;20063;-58
2024/02/08 12:33:58;;;;;;;19.42;7.85;;;;;;;;;;5113691;28;20036;-59
2024/02/08 12:36:23;;;;;;;;;;;;;;;;;;5110391;28;20029;-57
2024/02/08 12:38:50;;;;;;;17.67;5.93;;;;;;;;;;5122959;28;19926;-59
2024/02/08 12:41:16;;;;;;;22.73;7.95;;;;;;;;;;5113760;28;20036;-60
2024/02/08 12:43:46;;;;;;;17.27;7.03;;;;;;;;;;5099241;28;20067;-57
2024/02/08 12:46:15;;;;;;;19.63;5.70;;;;;;;;;;5105184;28;20031;-57
2024/02/08 12:48:41;;;;;;;29.85;8.90;;;;;;;;;;5120144;28;20039;-59
2024/02/08 12:51:13;;;;;;;23.20;7.05;;;;;;;;;;5116106;28;20027;-59
2024/02/08 12:53:39;;;;;;;24.25;7.55;;;;;;;;;;5110309;28;20048;-59
2024/02/08 12:56:09;;;;;;;36.38;9.82;;;;;;;;;;5110185;28;20036;-57
2024/02/08 12:58:35;;;;;;;23.83;8.73;;;;;;;;;;5114441;28;20052;-59
2024/02/08 13:01:07;;;;;;;28.50;8.50;;;;;;;;;;5109165;28;20028;-56
2024/02/08 13:03:37;;;;;;;24.38;8.07;;;;;;;;;;5119103;28;20032;-59
2024/02/08 13:06:20;;;;;;;36.58;9.75;;;;;;;;;;5104875;28;20099;-60
2024/02/08 13:08:46;;;;;;;33.40;9.50;;;;;;;;;;5110564;28;20043;-58
2024/02/08 13:11:18;;;;;;;30.48;9.38;;;;;;;;;;5105819;28;20032;-59
2024/02/08 13:13:45;;;;;;;22.98;8.52;;;;;;;;;;5108973;28;20028;-58
2024/02/08 13:16:10;;;;;;;;;;;;;;;;;;5102049;28;20028;-58
2024/02/08 13:18:38;;;;;;;33.27;9.57;;;;;;;;;;5110239;28;19923;-60
2024/02/08 13:21:04;;;;;;;23.50;8.60;;;;;;;;;;5111523;28;20028;-59
2024/02/08 13:23:30;;;;;;;21.43;9.83;;;;;;;;;;5106032;28;20028;-59
2024/02/08 13:25:56;;;;;;;27.10;8.15;;;;;;;;;;5107375;28;20308;-58
2024/02/08 13:28:24;;;;;;;25.80;9.30;;;;;;;;;;5113771;28;20097;-59
2024/02/08 13:30:57;;;;;;;29.52;9.00;;;;;;;;;;5123179;28;20042;-58
2024/02/08 13:33:23;;;;;;;25.85;9.85;;;;;;;;;;5108363;28;20032;-59
2024/02/08 13:35:49;;;;;;;23.77;9.47;;;;;;;;;;5105150;28;20020;-56
2024/02/08 13:38:22;;;;;;;23.60;7.88;;;;;;;;;;5112161;28;20290;-57
2024/02/08 13:40:52;;;;;;;30.30;9.65;;;;;;;;;;5103814;28;20027;-58
2024/02/08 13:43:18;;;;;;;21.42;8.48;;;;;;;;;;5098837;28;20032;-58
2024/02/08 13:45:43;;;;;;;31.88;9.38;;;;;;;;;;5114811;28;20050;-59
2024/02/08 13:48:12;;;;;;;27.65;8.02;;;;;;;;;;5117780;28;20055;-59
2024/02/08 13:50:38;;;;;;;28.27;8.65;;;;;;;;;;5110327;28;20039;-59
2024/02/08 13:53:04;;;;;;;24.65;9.77;;;;;;;;;;5104032;28;20032;-59
2024/02/08 13:55:32;;;;;;;31.73;9.45;;;;;;;;;;5100112;28;20033;-57
2024/02/08 13:58:00;;;;;;;23.98;7.45;;;;;;;;;;5116406;28;20031;-58
2024/02/08 14:00:26;;;;;;;37.72;8.90;;;;;;;;;;5113803;28;20028;-57
2024/02/08 14:02:56;;;;;;;45.25;10.30;;;;;;;;;;5117980;28;20105;-59
2024/02/08 14:05:25;;;;;;;18.90;7.88;;;;;;;;;;5112002;28;20035;-58
2024/02/08 14:07:56;;;;;;;29.48;8.23;;;;;;;;;;5103178;28;20039;-58
2024/02/08 14:10:32;;;;;;;20.70;8.30;;;;;;;;;;5116828;28;20073;-56
2024/02/08 14:13:09;;;;;;;26.20;9.27;;;;;;;;;;5108378;28;20032;-53
2024/02/08 14:15:45;;;;;;;31.55;9.55;;;;;;;;;;5108482;28;20090;-59
2024/02/08 14:18:11;;;;;;;26.95;9.13;;;;;;;;;;5107548;28;20024;-57
2024/02/08 14:21:00;;;;;;;23.45;8.85;;;;;;;;;;5115959;28;20044;-60
2024/02/08 14:23:49;;;;;;;25.75;8.32;;;;;;;;;;5114352;28;20043;-55
2024/02/08 14:28:47;;;;;;;23.08;8.27;;;;;;;;;;5113732;28;20100;-58
2024/02/08 14:31:13;;;;;;;28.20;8.93;;;;;;;;;;5104589;28;20044;-59
2024/02/08 14:33:41;;;;;;;21.73;9.02;;;;;;;;;;5100008;28;20067;-58
2024/02/08 14:36:09;;;;;;;29.20;9.05;;;;;;;;;;5116616;28;20028;-57
2024/02/08 14:38:41;;;;;;;21.20;8.02;;;;;;;;;;5113441;28;20016;-60
2024/02/08 14:41:08;;;;;;;23.85;8.70;;;;;;;;;;5102331;28;20033;-57
2024/02/08 14:43:34;;;;;;;26.13;9.00;;;;;;;;;;5109077;28;20028;-57
2024/02/08 14:45:59;;;;;;;22.90;9.00;;;;;;;;;;5113606;28;20044;-57
2024/02/08 14:48:27;;;;;;;22.60;9.80;;;;;;;;;;5113410;28;20435;-58
2024/02/08 14:50:55;;;;;;;28.60;8.02;;;;;;;;;;5102514;28;20039;-54
2024/02/08 14:53:22;;;;;;;24.90;8.90;;;;;;;;;;5109447;28;20092;-58
2024/02/08 14:55:51;;;;;;;25.85;9.48;;;;;;;;;;5101724;28;20058;-59
2024/02/08 14:58:33;;;;;;;21.17;9.15;;;;;;;;;;5104704;28;20082;-59
2024/02/08 15:01:30;;;;;;;19.98;8.35;;;;;;;;;;5108719;28;20043;-60
2024/02/08 15:03:58;;;;;;;24.67;8.88;;;;;;;;;;5110677;28;20043;-59
2024/02/08 15:06:39;;;;;;;27.15;9.27;;;;;;;;;;5112819;28;20093;-60
2024/02/08 15:12:09;;;;;;;21.20;8.52;;;;;;;;;;5117852;28;20032;-58
2024/02/08 15:14:35;;;;;;;24.13;9.23;;;;;;;;;;5116185;28;20050;-61
2024/02/08 15:17:07;;;;;;;25.40;9.00;;;;;;;;;;5111397;28;20036;-60
2024/02/08 15:19:33;;;;;;;19.15;8.32;;;;;;;;;;5103125;28;20028;-60
2024/02/08 15:22:18;;;;;;;26.83;9.30;;;;;;;;;;5112692;28;20042;-60
2024/02/08 15:24:46;;;;;;;13.93;6.82;;;;;;;;;;5106585;28;20028;-60
2024/02/08 15:27:18;;;;;;;17.70;8.63;;;;;;;;;;5117473;28;20093;-60
2024/02/08 15:29:51;;;;;;;18.27;8.23;;;;;;;;;;5122448;28;20053;-60
2024/02/08 15:32:17;;;;;;;17.42;8.05;;;;;;;;;;5109465;28;20032;-60
2024/02/08 15:34:58;;;;;;;17.60;7.88;;;;;;;;;;5109648;28;20030;-60
2024/02/08 15:42:31;;;;;;;19.35;8.32;;;;;;;;;;5117645;28;20302;-61
2024/02/08 15:45:00;;;;;;;14.77;8.10;;;;;;;;;;5114739;28;20028;-61
2024/02/08 15:47:29;;;;;;;19.63;9.07;;;;;;;;;;5122979;28;20089;-59
2024/02/08 15:49:55;;;;;;;19.33;8.93;;;;;;;;;;5115641;28;20032;-59
2024/02/08 15:52:28;;;;;;;19.30;9.07;;;;;;;;;;5115481;28;20045;-61
2024/02/08 15:54:58;;;;;;;17.42;8.63;;;;;;;;;;5111200;28;20671;-61
2024/02/08 15:57:32;;;;;;;25.73;11.25;;;;;;;;;;5114278;28;20039;-59
2024/02/08 15:59:59;;;;;;;18.83;8.73;;;;;;;;;;5109195;28;20039;-61
2024/02/08 16:02:26;;;;;;;18.75;9.18;;;;;;;;;;5120816;28;20095;-61
2024/02/08 16:04:52;;;;;;;19.05;9.68;;;;;;;;;;5113499;28;20039;-62
2024/02/08 16:07:18;;;;;;;21.17;10.05;;;;;;;;;;5115208;28;20608;-61
2024/02/08 16:09:57;;;;;;;22.30;10.65;;;;;;;;;;5104532;28;20096;-61
2024/02/08 16:12:23;;;;;;;21.45;10.55;;;;;;;;;;5124133;28;20028;-60
2024/02/08 16:14:49;;;;;;;24.25;10.57;;;;;;;;;;5112261;28;20058;-60
2024/02/08 16:19:57;;;;;;;24.95;11.13;;;;;;;;;;5116305;28;20099;-61
2024/02/08 16:22:30;;;;;;;;;;;;;;;;;;5117293;28;20057;-61
2024/02/08 16:24:56;;;;;;;23.20;10.65;;;;;;;;;;5111249;28;19947;-61
2024/02/08 16:27:24;;;;;;;21.55;10.20;;;;;;;;;;5104027;28;20032;-61
2024/02/08 16:29:59;;;;;;;22.05;11.23;;;;;;;;;;5109421;28;20032;-60
2024/02/08 16:32:38;;;;;;;20.98;12.15;;;;;;;;;;5113328;28;20087;-62
2024/02/08 16:35:32;;;;;;;25.33;12.38;;;;;;;;;;5115548;28;20028;-61
2024/02/08 16:38:16;;;;;;;29.90;13.10;;;;;;;;;;5110380;28;20024;-61
2024/02/08 16:40:51;;;;;;;24.90;13.25;;;;;;;;;;5101270;28;20032;-63
2024/02/08 16:43:20;;;;;;;22.00;12.60;;;;;;;;;;5110827;28;20028;-61
2024/02/08 16:45:50;;;;;;;21.27;11.93;;;;;;;;;;5115264;28;20035;-61
2024/02/08 16:48:23;;;;;;;30.08;12.68;;;;;;;;;;5113704;28;20031;-61
2024/02/08 16:50:49;;;;;;;26.45;12.38;;;;;;;;;;5114909;28;20042;-60
2024/02/08 16:53:19;;;;;;;23.10;12.50;;;;;;;;;;5102768;28;20016;-61
2024/02/08 16:55:47;;;;;;;26.17;12.10;;;;;;;;;;5108127;28;20118;-60
2024/02/08 16:58:28;;;;;;;24.05;13.10;;;;;;;;;;5115070;28;20030;-61
2024/02/08 17:01:02;;;;;;;27.10;13.48;;;;;;;;;;5105001;28;20102;-61
2024/02/08 17:06:16;;;;;;;21.90;12.77;;;;;;;;;;5115214;28;20087;-60
2024/02/08 17:11:58;;;;;;;25.70;13.68;;;;;;;;;;5092380;28;20087;-61